sensor_id;sensor_type;location;lat;lon;timestamp;P1;durP1;ratioP1;P2;durP2;ratioP2
43710;SDS011;29309;42.682;23.372;2023-04-03T00:00:56;17.48;;;7.95;;
43710;SDS011;29309;42.682;23.372;2023-04-03T00:03:21;20.42;;;8.15;;
43710;SDS011;29309;42.682;23.372;2023-04-03T00:05:47;15.25;;;7.15;;
43710;SDS011;29309;42.682;23.372;2023-04-03T00:08:12;19.55;;;8.52;;
43710;SDS011;29309;42.682;23.372;2023-04-03T00:10:38;17.50;;;7.32;;
43710;SDS011;29309;42.682;23.372;2023-04-03T00:13:04;17.75;;;7.80;;
43710;SDS011;29309;42.682;23.372;2023-04-03T00:15:30;18.15;;;7.28;;
43710;SDS011;29309;42.682;23.372;2023-04-03T00:17:56;16.23;;;7.43;;
43710;SDS011;29309;42.682;23.372;2023-04-03T00:20:22;15.55;;;6.65;;
43710;SDS011;29309;42.682;23.372;2023-04-03T00:22:48;14.65;;;5.70;;
43710;SDS011;29309;42.682;23.372;2023-04-03T00:25:13;15.88;;;6.57;;
43710;SDS011;29309;42.682;23.372;2023-04-03T00:27:39;11.90;;;6.00;;
43710;SDS011;29309;42.682;23.372;2023-04-03T00:30:05;20.90;;;6.47;;
43710;SDS011;29309;42.682;23.372;2023-04-03T00:32:32;16.20;;;6.75;;
43710;SDS011;29309;42.682;23.372;2023-04-03T00:34:58;12.50;;;6.72;;
43710;SDS011;29309;42.682;23.372;2023-04-03T00:37:24;14.05;;;5.35;;
43710;SDS011;29309;42.682;23.372;2023-04-03T00:39:49;12.82;;;4.68;;
43710;SDS011;29309;42.682;23.372;2023-04-03T00:42:15;7.30;;;3.78;;
43710;SDS011;29309;42.682;23.372;2023-04-03T00:47:07;9.38;;;4.57;;
43710;SDS011;29309;42.682;23.372;2023-04-03T00:49:36;7.85;;;3.40;;
43710;SDS011;29309;42.682;23.372;2023-04-03T00:52:03;6.03;;;3.15;;
43710;SDS011;29309;42.682;23.372;2023-04-03T00:54:31;7.30;;;3.95;;
43710;SDS011;29309;42.682;23.372;2023-04-03T00:57:02;7.57;;;3.63;;
43710;SDS011;29309;42.682;23.372;2023-04-03T00:59:31;10.43;;;4.18;;
43710;SDS011;29309;42.682;23.372;2023-04-03T01:02:00;7.95;;;3.97;;
43710;SDS011;29309;42.682;23.372;2023-04-03T01:04:34;9.98;;;4.65;;
43710;SDS011;29309;42.682;23.372;2023-04-03T01:07:06;7.70;;;4.80;;
43710;SDS011;29309;42.682;23.372;2023-04-03T01:09:34;8.40;;;4.32;;
43710;SDS011;29309;42.682;23.372;2023-04-03T01:14:52;9.25;;;4.85;;
43710;SDS011;29309;42.682;23.372;2023-04-03T01:19:53;13.05;;;5.47;;
43710;SDS011;29309;42.682;23.372;2023-04-03T01:22:38;10.55;;;5.68;;
43710;SDS011;29309;42.682;23.372;2023-04-03T01:25:14;11.88;;;5.30;;
43710;SDS011;29309;42.682;23.372;2023-04-03T01:27:39;13.18;;;6.38;;
43710;SDS011;29309;42.682;23.372;2023-04-03T01:30:05;12.50;;;6.60;;
43710;SDS011;29309;42.682;23.372;2023-04-03T01:32:31;15.52;;;8.70;;
43710;SDS011;29309;42.682;23.372;2023-04-03T01:34:57;18.30;;;10.63;;
43710;SDS011;29309;42.682;23.372;2023-04-03T01:37:22;20.63;;;10.18;;
43710;SDS011;29309;42.682;23.372;2023-04-03T01:39:48;18.73;;;10.82;;
43710;SDS011;29309;42.682;23.372;2023-04-03T01:42:13;23.85;;;12.18;;
43710;SDS011;29309;42.682;23.372;2023-04-03T01:44:38;18.55;;;10.70;;
43710;SDS011;29309;42.682;23.372;2023-04-03T01:47:05;18.38;;;10.57;;
43710;SDS011;29309;42.682;23.372;2023-04-03T01:49:31;20.80;;;11.20;;
43710;SDS011;29309;42.682;23.372;2023-04-03T01:51:57;20.35;;;12.02;;
43710;SDS011;29309;42.682;23.372;2023-04-03T01:54:23;16.48;;;9.57;;
43710;SDS011;29309;42.682;23.372;2023-04-03T01:56:48;18.80;;;10.40;;
43710;SDS011;29309;42.682;23.372;2023-04-03T01:59:13;27.65;;;12.05;;
43710;SDS011;29309;42.682;23.372;2023-04-03T02:01:41;40.65;;;14.00;;
43710;SDS011;29309;42.682;23.372;2023-04-03T02:04:08;31.58;;;14.48;;
43710;SDS011;29309;42.682;23.372;2023-04-03T02:06:34;32.17;;;13.43;;
43710;SDS011;29309;42.682;23.372;2023-04-03T02:09:00;31.45;;;13.98;;
43710;SDS011;29309;42.682;23.372;2023-04-03T02:11:25;24.42;;;12.07;;
43710;SDS011;29309;42.682;23.372;2023-04-03T02:13:51;25.48;;;13.32;;
43710;SDS011;29309;42.682;23.372;2023-04-03T02:16:16;27.40;;;13.57;;
43710;SDS011;29309;42.682;23.372;2023-04-03T02:18:41;26.17;;;12.35;;
43710;SDS011;29309;42.682;23.372;2023-04-03T02:21:07;25.23;;;12.48;;
43710;SDS011;29309;42.682;23.372;2023-04-03T02:23:33;24.42;;;11.38;;
43710;SDS011;29309;42.682;23.372;2023-04-03T02:26:08;24.85;;;10.93;;
43710;SDS011;29309;42.682;23.372;2023-04-03T02:28:35;28.95;;;12.18;;
43710;SDS011;29309;42.682;23.372;2023-04-03T02:31:02;23.85;;;12.15;;
43710;SDS011;29309;42.682;23.372;2023-04-03T02:33:27;30.88;;;11.63;;
43710;SDS011;29309;42.682;23.372;2023-04-03T02:35:54;19.80;;;11.43;;
43710;SDS011;29309;42.682;23.372;2023-04-03T02:38:20;26.27;;;11.68;;
43710;SDS011;29309;42.682;23.372;2023-04-03T02:40:46;22.77;;;10.00;;
43710;SDS011;29309;42.682;23.372;2023-04-03T02:43:11;25.55;;;11.25;;
43710;SDS011;29309;42.682;23.372;2023-04-03T02:45:37;21.83;;;9.77;;
43710;SDS011;29309;42.682;23.372;2023-04-03T02:48:02;19.45;;;8.65;;
43710;SDS011;29309;42.682;23.372;2023-04-03T02:50:28;19.88;;;8.52;;
43710;SDS011;29309;42.682;23.372;2023-04-03T02:52:53;14.50;;;6.65;;
43710;SDS011;29309;42.682;23.372;2023-04-03T02:55:18;14.23;;;7.05;;
43710;SDS011;29309;42.682;23.372;2023-04-03T02:57:44;14.27;;;6.65;;
43710;SDS011;29309;42.682;23.372;2023-04-03T03:00:09;12.88;;;6.68;;
43710;SDS011;29309;42.682;23.372;2023-04-03T03:02:35;18.45;;;6.32;;
43710;SDS011;29309;42.682;23.372;2023-04-03T03:05:00;17.88;;;7.35;;
43710;SDS011;29309;42.682;23.372;2023-04-03T03:07:26;16.48;;;7.07;;
43710;SDS011;29309;42.682;23.372;2023-04-03T03:09:51;16.08;;;6.20;;
43710;SDS011;29309;42.682;23.372;2023-04-03T03:12:17;9.93;;;5.88;;
43710;SDS011;29309;42.682;23.372;2023-04-03T03:14:46;13.18;;;6.82;;
43710;SDS011;29309;42.682;23.372;2023-04-03T03:17:12;12.50;;;5.90;;
43710;SDS011;29309;42.682;23.372;2023-04-03T03:19:38;15.18;;;5.95;;
43710;SDS011;29309;42.682;23.372;2023-04-03T03:22:03;14.65;;;6.25;;
43710;SDS011;29309;42.682;23.372;2023-04-03T03:24:29;13.57;;;6.45;;
43710;SDS011;29309;42.682;23.372;2023-04-03T03:26:54;14.07;;;6.15;;
43710;SDS011;29309;42.682;23.372;2023-04-03T03:29:20;13.98;;;6.25;;
43710;SDS011;29309;42.682;23.372;2023-04-03T03:31:45;11.98;;;6.20;;
43710;SDS011;29309;42.682;23.372;2023-04-03T03:34:11;14.27;;;6.30;;
43710;SDS011;29309;42.682;23.372;2023-04-03T03:36:37;20.50;;;7.53;;
43710;SDS011;29309;42.682;23.372;2023-04-03T03:39:02;26.85;;;12.10;;
43710;SDS011;29309;42.682;23.372;2023-04-03T03:41:28;23.05;;;11.82;;
43710;SDS011;29309;42.682;23.372;2023-04-03T03:43:53;31.52;;;12.80;;
43710;SDS011;29309;42.682;23.372;2023-04-03T03:46:19;49.80;;;12.18;;
43710;SDS011;29309;42.682;23.372;2023-04-03T03:48:44;28.52;;;12.00;;
43710;SDS011;29309;42.682;23.372;2023-04-03T03:51:10;31.55;;;12.93;;
43710;SDS011;29309;42.682;23.372;2023-04-03T03:53:35;30.55;;;13.77;;
43710;SDS011;29309;42.682;23.372;2023-04-03T03:56:01;33.88;;;16.05;;
43710;SDS011;29309;42.682;23.372;2023-04-03T03:58:27;34.67;;;16.40;;
43710;SDS011;29309;42.682;23.372;2023-04-03T04:00:52;38.88;;;17.67;;
43710;SDS011;29309;42.682;23.372;2023-04-03T04:03:18;34.85;;;17.52;;
43710;SDS011;29309;42.682;23.372;2023-04-03T04:05:43;39.55;;;18.90;;
43710;SDS011;29309;42.682;23.372;2023-04-03T04:08:08;36.42;;;16.88;;
43710;SDS011;29309;42.682;23.372;2023-04-03T04:10:34;41.75;;;17.35;;
43710;SDS011;29309;42.682;23.372;2023-04-03T04:13:01;34.42;;;17.27;;
43710;SDS011;29309;42.682;23.372;2023-04-03T04:15:27;36.38;;;17.48;;
43710;SDS011;29309;42.682;23.372;2023-04-03T04:17:52;38.17;;;16.90;;
43710;SDS011;29309;42.682;23.372;2023-04-03T04:20:18;27.73;;;15.07;;
43710;SDS011;29309;42.682;23.372;2023-04-03T04:22:43;30.92;;;15.10;;
43710;SDS011;29309;42.682;23.372;2023-04-03T04:25:09;38.13;;;15.38;;
43710;SDS011;29309;42.682;23.372;2023-04-03T04:27:35;38.95;;;15.40;;
43710;SDS011;29309;42.682;23.372;2023-04-03T04:30:02;33.42;;;14.25;;
43710;SDS011;29309;42.682;23.372;2023-04-03T04:32:28;36.40;;;13.98;;
43710;SDS011;29309;42.682;23.372;2023-04-03T04:34:54;27.75;;;12.93;;
43710;SDS011;29309;42.682;23.372;2023-04-03T04:37:19;36.67;;;14.10;;
43710;SDS011;29309;42.682;23.372;2023-04-03T04:39:45;29.17;;;12.75;;
43710;SDS011;29309;42.682;23.372;2023-04-03T04:42:10;30.52;;;13.65;;
43710;SDS011;29309;42.682;23.372;2023-04-03T04:44:38;36.95;;;14.50;;
43710;SDS011;29309;42.682;23.372;2023-04-03T04:47:04;39.08;;;13.75;;
43710;SDS011;29309;42.682;23.372;2023-04-03T04:49:30;33.90;;;12.90;;
43710;SDS011;29309;42.682;23.372;2023-04-03T04:51:55;31.52;;;14.07;;
43710;SDS011;29309;42.682;23.372;2023-04-03T04:54:21;35.95;;;14.43;;
43710;SDS011;29309;42.682;23.372;2023-04-03T04:56:46;33.55;;;13.00;;
43710;SDS011;29309;42.682;23.372;2023-04-03T04:59:12;24.98;;;12.25;;
43710;SDS011;29309;42.682;23.372;2023-04-03T05:01:37;28.35;;;12.32;;
43710;SDS011;29309;42.682;23.372;2023-04-03T05:04:03;46.70;;;10.55;;
43710;SDS011;29309;42.682;23.372;2023-04-03T05:06:28;28.60;;;10.60;;
43710;SDS011;29309;42.682;23.372;2023-04-03T05:08:56;29.55;;;12.05;;
43710;SDS011;29309;42.682;23.372;2023-04-03T05:11:22;34.58;;;12.63;;
43710;SDS011;29309;42.682;23.372;2023-04-03T05:13:48;43.97;;;18.88;;
43710;SDS011;29309;42.682;23.372;2023-04-03T05:16:13;33.30;;;15.05;;
43710;SDS011;29309;42.682;23.372;2023-04-03T05:18:39;29.17;;;11.30;;
43710;SDS011;29309;42.682;23.372;2023-04-03T05:21:04;28.20;;;9.98;;
43710;SDS011;29309;42.682;23.372;2023-04-03T05:23:30;23.38;;;9.38;;
43710;SDS011;29309;42.682;23.372;2023-04-03T05:25:55;23.65;;;7.68;;
43710;SDS011;29309;42.682;23.372;2023-04-03T05:28:21;22.83;;;6.63;;
43710;SDS011;29309;42.682;23.372;2023-04-03T05:30:52;26.48;;;6.78;;
43710;SDS011;29309;42.682;23.372;2023-04-03T05:33:19;18.02;;;6.70;;
43710;SDS011;29309;42.682;23.372;2023-04-03T05:35:45;21.63;;;7.97;;
43710;SDS011;29309;42.682;23.372;2023-04-03T05:38:10;18.40;;;7.93;;
43710;SDS011;29309;42.682;23.372;2023-04-03T05:40:36;24.73;;;8.60;;
43710;SDS011;29309;42.682;23.372;2023-04-03T05:43:02;21.98;;;8.68;;
43710;SDS011;29309;42.682;23.372;2023-04-03T05:45:27;26.75;;;8.80;;
43710;SDS011;29309;42.682;23.372;2023-04-03T05:47:53;24.52;;;10.00;;
43710;SDS011;29309;42.682;23.372;2023-04-03T05:50:18;31.25;;;10.50;;
43710;SDS011;29309;42.682;23.372;2023-04-03T05:52:45;31.52;;;12.32;;
43710;SDS011;29309;42.682;23.372;2023-04-03T05:55:14;31.92;;;13.98;;
43710;SDS011;29309;42.682;23.372;2023-04-03T05:57:39;31.30;;;12.32;;
43710;SDS011;29309;42.682;23.372;2023-04-03T06:00:06;31.40;;;12.75;;
43710;SDS011;29309;42.682;23.372;2023-04-03T06:02:34;25.88;;;12.75;;
43710;SDS011;29309;42.682;23.372;2023-04-03T06:05:00;30.25;;;12.85;;
43710;SDS011;29309;42.682;23.372;2023-04-03T06:07:26;31.65;;;13.07;;
43710;SDS011;29309;42.682;23.372;2023-04-03T06:09:53;29.38;;;13.25;;
43710;SDS011;29309;42.682;23.372;2023-04-03T06:12:20;26.95;;;12.40;;
43710;SDS011;29309;42.682;23.372;2023-04-03T06:14:47;24.95;;;12.50;;
43710;SDS011;29309;42.682;23.372;2023-04-03T06:17:13;26.08;;;10.35;;
43710;SDS011;29309;42.682;23.372;2023-04-03T06:19:40;26.77;;;9.35;;
43710;SDS011;29309;42.682;23.372;2023-04-03T06:22:06;22.10;;;10.07;;
43710;SDS011;29309;42.682;23.372;2023-04-03T06:24:31;24.30;;;10.77;;
43710;SDS011;29309;42.682;23.372;2023-04-03T06:26:57;23.00;;;10.13;;
43710;SDS011;29309;42.682;23.372;2023-04-03T06:29:23;31.20;;;10.82;;
43710;SDS011;29309;42.682;23.372;2023-04-03T06:31:49;21.00;;;10.52;;
43710;SDS011;29309;42.682;23.372;2023-04-03T06:34:15;22.95;;;11.15;;
43710;SDS011;29309;42.682;23.372;2023-04-03T06:36:42;26.15;;;12.38;;
43710;SDS011;29309;42.682;23.372;2023-04-03T06:39:09;24.63;;;11.02;;
43710;SDS011;29309;42.682;23.372;2023-04-03T06:41:39;17.45;;;10.00;;
43710;SDS011;29309;42.682;23.372;2023-04-03T06:44:05;29.67;;;12.68;;
43710;SDS011;29309;42.682;23.372;2023-04-03T06:46:30;22.67;;;11.93;;
43710;SDS011;29309;42.682;23.372;2023-04-03T06:48:55;24.15;;;12.60;;
43710;SDS011;29309;42.682;23.372;2023-04-03T06:51:25;20.70;;;12.60;;
43710;SDS011;29309;42.682;23.372;2023-04-03T06:53:53;21.83;;;11.45;;
43710;SDS011;29309;42.682;23.372;2023-04-03T06:56:20;25.75;;;11.55;;
43710;SDS011;29309;42.682;23.372;2023-04-03T06:58:46;26.10;;;12.52;;
43710;SDS011;29309;42.682;23.372;2023-04-03T07:01:12;21.15;;;11.70;;
43710;SDS011;29309;42.682;23.372;2023-04-03T07:03:39;26.58;;;12.43;;
43710;SDS011;29309;42.682;23.372;2023-04-03T07:06:05;24.13;;;13.77;;
43710;SDS011;29309;42.682;23.372;2023-04-03T07:08:32;22.67;;;13.18;;
43710;SDS011;29309;42.682;23.372;2023-04-03T07:10:58;27.92;;;12.63;;
43710;SDS011;29309;42.682;23.372;2023-04-03T07:13:23;26.35;;;13.30;;
43710;SDS011;29309;42.682;23.372;2023-04-03T07:15:49;27.15;;;12.57;;
43710;SDS011;29309;42.682;23.372;2023-04-03T07:18:15;29.38;;;13.93;;
43710;SDS011;29309;42.682;23.372;2023-04-03T07:20:42;29.85;;;15.27;;
43710;SDS011;29309;42.682;23.372;2023-04-03T07:23:07;48.58;;;16.60;;
43710;SDS011;29309;42.682;23.372;2023-04-03T07:25:33;30.13;;;15.73;;
43710;SDS011;29309;42.682;23.372;2023-04-03T07:27:59;29.75;;;13.88;;
43710;SDS011;29309;42.682;23.372;2023-04-03T07:30:24;29.40;;;14.48;;
43710;SDS011;29309;42.682;23.372;2023-04-03T07:32:50;32.00;;;13.98;;
43710;SDS011;29309;42.682;23.372;2023-04-03T07:35:16;31.50;;;14.18;;
43710;SDS011;29309;42.682;23.372;2023-04-03T07:37:42;27.00;;;15.05;;
43710;SDS011;29309;42.682;23.372;2023-04-03T07:40:08;51.40;;;19.70;;
43710;SDS011;29309;42.682;23.372;2023-04-03T07:42:34;40.42;;;21.50;;
43710;SDS011;29309;42.682;23.372;2023-04-03T07:45:00;39.95;;;17.88;;
43710;SDS011;29309;42.682;23.372;2023-04-03T07:47:26;45.90;;;16.67;;
43710;SDS011;29309;42.682;23.372;2023-04-03T07:49:52;29.65;;;14.77;;
43710;SDS011;29309;42.682;23.372;2023-04-03T07:52:17;26.83;;;12.57;;
43710;SDS011;29309;42.682;23.372;2023-04-03T07:54:43;26.17;;;11.65;;
43710;SDS011;29309;42.682;23.372;2023-04-03T07:57:08;19.52;;;11.30;;
43710;SDS011;29309;42.682;23.372;2023-04-03T07:59:34;25.33;;;11.77;;
43710;SDS011;29309;42.682;23.372;2023-04-03T08:02:00;25.15;;;11.55;;
43710;SDS011;29309;42.682;23.372;2023-04-03T08:04:25;29.25;;;12.85;;
43710;SDS011;29309;42.682;23.372;2023-04-03T08:06:52;29.63;;;12.80;;
43710;SDS011;29309;42.682;23.372;2023-04-03T08:09:18;19.70;;;10.98;;
43710;SDS011;29309;42.682;23.372;2023-04-03T08:11:44;23.63;;;12.20;;
43710;SDS011;29309;42.682;23.372;2023-04-03T08:14:10;24.48;;;11.90;;
43710;SDS011;29309;42.682;23.372;2023-04-03T08:16:41;23.05;;;11.23;;
43710;SDS011;29309;42.682;23.372;2023-04-03T08:19:06;18.48;;;11.20;;
43710;SDS011;29309;42.682;23.372;2023-04-03T08:21:32;20.88;;;11.25;;
43710;SDS011;29309;42.682;23.372;2023-04-03T08:23:58;22.77;;;12.80;;
43710;SDS011;29309;42.682;23.372;2023-04-03T08:26:23;25.70;;;12.75;;
43710;SDS011;29309;42.682;23.372;2023-04-03T08:28:51;23.77;;;11.70;;
43710;SDS011;29309;42.682;23.372;2023-04-03T08:31:17;38.25;;;19.20;;
43710;SDS011;29309;42.682;23.372;2023-04-03T08:33:45;24.88;;;14.20;;
43710;SDS011;29309;42.682;23.372;2023-04-03T08:36:20;33.03;;;11.25;;
43710;SDS011;29309;42.682;23.372;2023-04-03T08:38:52;22.23;;;11.32;;
43710;SDS011;29309;42.682;23.372;2023-04-03T08:46:36;29.98;;;13.80;;
43710;SDS011;29309;42.682;23.372;2023-04-03T08:49:21;20.02;;;12.18;;
43710;SDS011;29309;42.682;23.372;2023-04-03T08:51:51;22.13;;;11.20;;
43710;SDS011;29309;42.682;23.372;2023-04-03T08:54:28;18.83;;;10.77;;
43710;SDS011;29309;42.682;23.372;2023-04-03T08:56:58;23.05;;;11.55;;
43710;SDS011;29309;42.682;23.372;2023-04-03T08:59:28;20.83;;;11.10;;
43710;SDS011;29309;42.682;23.372;2023-04-03T09:01:57;25.30;;;12.35;;
43710;SDS011;29309;42.682;23.372;2023-04-03T09:04:27;26.40;;;12.35;;
43710;SDS011;29309;42.682;23.372;2023-04-03T09:06:58;18.52;;;10.10;;
43710;SDS011;29309;42.682;23.372;2023-04-03T09:09:35;25.73;;;11.63;;
43710;SDS011;29309;42.682;23.372;2023-04-03T09:23:26;30.52;;;11.23;;
43710;SDS011;29309;42.682;23.372;2023-04-03T09:26:00;27.15;;;10.73;;
43710;SDS011;29309;42.682;23.372;2023-04-03T09:28:35;20.08;;;10.23;;
43710;SDS011;29309;42.682;23.372;2023-04-03T09:31:16;28.48;;;11.70;;
43710;SDS011;29309;42.682;23.372;2023-04-03T09:33:45;18.70;;;10.75;;
43710;SDS011;29309;42.682;23.372;2023-04-03T09:36:12;19.88;;;9.95;;
43710;SDS011;29309;42.682;23.372;2023-04-03T09:38:38;28.83;;;14.88;;
43710;SDS011;29309;42.682;23.372;2023-04-03T09:41:11;26.02;;;17.58;;
43710;SDS011;29309;42.682;23.372;2023-04-03T09:43:40;23.98;;;13.45;;
43710;SDS011;29309;42.682;23.372;2023-04-03T09:46:24;22.80;;;12.52;;
43710;SDS011;29309;42.682;23.372;2023-04-03T09:48:58;22.05;;;10.77;;
43710;SDS011;29309;42.682;23.372;2023-04-03T09:51:26;18.67;;;9.15;;
43710;SDS011;29309;42.682;23.372;2023-04-03T09:53:53;19.73;;;7.90;;
43710;SDS011;29309;42.682;23.372;2023-04-03T09:56:20;23.05;;;7.78;;
43710;SDS011;29309;42.682;23.372;2023-04-03T10:04:11;14.80;;;7.82;;
43710;SDS011;29309;42.682;23.372;2023-04-03T10:06:39;13.18;;;7.93;;
43710;SDS011;29309;42.682;23.372;2023-04-03T10:09:27;16.95;;;8.13;;
43710;SDS011;29309;42.682;23.372;2023-04-03T10:14:37;19.25;;;8.77;;
43710;SDS011;29309;42.682;23.372;2023-04-03T10:19:53;21.75;;;8.85;;
43710;SDS011;29309;42.682;23.372;2023-04-03T10:22:34;10.48;;;6.90;;
43710;SDS011;29309;42.682;23.372;2023-04-03T10:25:07;23.30;;;7.65;;
43710;SDS011;29309;42.682;23.372;2023-04-03T10:27:42;15.70;;;6.80;;
43710;SDS011;29309;42.682;23.372;2023-04-03T10:30:29;30.80;;;7.35;;
43710;SDS011;29309;42.682;23.372;2023-04-03T10:36:02;28.50;;;7.90;;
43710;SDS011;29309;42.682;23.372;2023-04-03T10:41:17;12.77;;;6.38;;
43710;SDS011;29309;42.682;23.372;2023-04-03T10:46:32;17.15;;;7.05;;
43710;SDS011;29309;42.682;23.372;2023-04-03T10:58:02;10.77;;;4.57;;
43710;SDS011;29309;42.682;23.372;2023-04-03T11:00:39;10.95;;;4.05;;
43710;SDS011;29309;42.682;23.372;2023-04-03T11:03:12;12.73;;;3.75;;
43710;SDS011;29309;42.682;23.372;2023-04-03T11:05:45;8.15;;;3.58;;
43710;SDS011;29309;42.682;23.372;2023-04-03T11:10:51;10.30;;;3.53;;
43710;SDS011;29309;42.682;23.372;2023-04-03T11:13:25;10.55;;;4.03;;
43710;SDS011;29309;42.682;23.372;2023-04-03T11:15:59;7.40;;;3.10;;
43710;SDS011;29309;42.682;23.372;2023-04-03T11:18:27;4.18;;;2.30;;
43710;SDS011;29309;42.682;23.372;2023-04-03T11:21:08;11.68;;;3.85;;
43710;SDS011;29309;42.682;23.372;2023-04-03T11:23:41;4.05;;;2.67;;
43710;SDS011;29309;42.682;23.372;2023-04-03T11:26:10;4.53;;;2.28;;
43710;SDS011;29309;42.682;23.372;2023-04-03T11:28:38;5.20;;;2.63;;
43710;SDS011;29309;42.682;23.372;2023-04-03T11:31:22;6.25;;;3.00;;
43710;SDS011;29309;42.682;23.372;2023-04-03T11:36:47;7.20;;;3.00;;
43710;SDS011;29309;42.682;23.372;2023-04-03T11:41:51;4.22;;;2.15;;
43710;SDS011;29309;42.682;23.372;2023-04-03T11:44:34;6.15;;;3.00;;
43710;SDS011;29309;42.682;23.372;2023-04-03T11:47:02;3.25;;;2.47;;
43710;SDS011;29309;42.682;23.372;2023-04-03T12:05:52;5.32;;;3.35;;
43710;SDS011;29309;42.682;23.372;2023-04-03T12:13:40;3.55;;;2.15;;
43710;SDS011;29309;42.682;23.372;2023-04-03T12:16:06;4.40;;;2.50;;
43710;SDS011;29309;42.682;23.372;2023-04-03T12:26:47;7.28;;;2.90;;
43710;SDS011;29309;42.682;23.372;2023-04-03T12:32:05;5.97;;;2.80;;
43710;SDS011;29309;42.682;23.372;2023-04-03T12:43:22;10.05;;;3.85;;
43710;SDS011;29309;42.682;23.372;2023-04-03T12:45:51;9.82;;;4.38;;
43710;SDS011;29309;42.682;23.372;2023-04-03T12:48:25;7.10;;;3.55;;
43710;SDS011;29309;42.682;23.372;2023-04-03T12:50:53;6.05;;;3.40;;
43710;SDS011;29309;42.682;23.372;2023-04-03T12:53:27;8.23;;;3.80;;
43710;SDS011;29309;42.682;23.372;2023-04-03T12:58:49;12.57;;;5.50;;
43710;SDS011;29309;42.682;23.372;2023-04-03T13:01:16;10.00;;;5.75;;
43710;SDS011;29309;42.682;23.372;2023-04-03T13:03:47;10.40;;;5.22;;
43710;SDS011;29309;42.682;23.372;2023-04-03T13:06:26;11.65;;;5.45;;
43710;SDS011;29309;42.682;23.372;2023-04-03T13:08:56;6.40;;;4.15;;
43710;SDS011;29309;42.682;23.372;2023-04-03T13:11:24;7.63;;;4.70;;
43710;SDS011;29309;42.682;23.372;2023-04-03T13:13:53;9.63;;;5.50;;
43710;SDS011;29309;42.682;23.372;2023-04-03T13:16:20;9.20;;;5.75;;
43710;SDS011;29309;42.682;23.372;2023-04-03T13:18:49;11.57;;;5.95;;
43710;SDS011;29309;42.682;23.372;2023-04-03T13:21:18;12.13;;;6.93;;
43710;SDS011;29309;42.682;23.372;2023-04-03T13:23:47;7.63;;;5.43;;
43710;SDS011;29309;42.682;23.372;2023-04-03T13:26:16;9.18;;;5.53;;
43710;SDS011;29309;42.682;23.372;2023-04-03T13:28:43;12.15;;;6.43;;
43710;SDS011;29309;42.682;23.372;2023-04-03T13:33:43;12.95;;;7.18;;
43710;SDS011;29309;42.682;23.372;2023-04-03T13:36:31;11.35;;;6.95;;
43710;SDS011;29309;42.682;23.372;2023-04-03T13:39:00;10.43;;;6.22;;
43710;SDS011;29309;42.682;23.372;2023-04-03T13:41:32;10.45;;;6.28;;
43710;SDS011;29309;42.682;23.372;2023-04-03T13:44:14;8.68;;;5.10;;
43710;SDS011;29309;42.682;23.372;2023-04-03T13:46:52;9.00;;;5.70;;
43710;SDS011;29309;42.682;23.372;2023-04-03T13:49:21;10.00;;;5.97;;
43710;SDS011;29309;42.682;23.372;2023-04-03T13:51:53;10.90;;;6.47;;
43710;SDS011;29309;42.682;23.372;2023-04-03T13:54:24;12.13;;;7.20;;
43710;SDS011;29309;42.682;23.372;2023-04-03T13:56:55;12.30;;;7.50;;
43710;SDS011;29309;42.682;23.372;2023-04-03T14:04:27;10.65;;;7.57;;
43710;SDS011;29309;42.682;23.372;2023-04-03T14:06:56;14.45;;;7.28;;
43710;SDS011;29309;42.682;23.372;2023-04-03T14:09:24;14.45;;;8.52;;
43710;SDS011;29309;42.682;23.372;2023-04-03T14:11:52;12.55;;;7.65;;
43710;SDS011;29309;42.682;23.372;2023-04-03T14:14:22;10.82;;;6.45;;
43710;SDS011;29309;42.682;23.372;2023-04-03T14:16:52;8.60;;;5.90;;
43710;SDS011;29309;42.682;23.372;2023-04-03T14:19:22;10.60;;;7.13;;
43710;SDS011;29309;42.682;23.372;2023-04-03T14:21:50;9.32;;;6.10;;
43710;SDS011;29309;42.682;23.372;2023-04-03T14:24:18;8.13;;;6.00;;
43710;SDS011;29309;42.682;23.372;2023-04-03T14:26:45;11.45;;;7.03;;
43710;SDS011;29309;42.682;23.372;2023-04-03T14:29:11;12.75;;;7.30;;
43710;SDS011;29309;42.682;23.372;2023-04-03T14:31:39;9.60;;;6.70;;
43710;SDS011;29309;42.682;23.372;2023-04-03T14:34:05;10.73;;;8.02;;
43710;SDS011;29309;42.682;23.372;2023-04-03T14:36:31;21.00;;;8.23;;
43710;SDS011;29309;42.682;23.372;2023-04-03T14:38:58;10.68;;;7.18;;
43710;SDS011;29309;42.682;23.372;2023-04-03T14:41:25;8.38;;;5.93;;
43710;SDS011;29309;42.682;23.372;2023-04-03T14:43:51;7.50;;;5.40;;
43710;SDS011;29309;42.682;23.372;2023-04-03T14:46:18;8.48;;;5.63;;
43710;SDS011;29309;42.682;23.372;2023-04-03T14:48:48;6.85;;;4.70;;
43710;SDS011;29309;42.682;23.372;2023-04-03T14:51:14;9.38;;;5.60;;
43710;SDS011;29309;42.682;23.372;2023-04-03T14:53:41;9.57;;;5.70;;
43710;SDS011;29309;42.682;23.372;2023-04-03T14:56:25;10.30;;;6.05;;
43710;SDS011;29309;42.682;23.372;2023-04-03T14:59:01;8.23;;;4.80;;
43710;SDS011;29309;42.682;23.372;2023-04-03T15:01:27;4.43;;;3.95;;
43710;SDS011;29309;42.682;23.372;2023-04-03T15:03:53;4.95;;;3.75;;
43710;SDS011;29309;42.682;23.372;2023-04-03T15:06:19;4.78;;;3.03;;
43710;SDS011;29309;42.682;23.372;2023-04-03T15:08:45;5.22;;;3.08;;
43710;SDS011;29309;42.682;23.372;2023-04-03T15:11:13;7.68;;;3.45;;
43710;SDS011;29309;42.682;23.372;2023-04-03T15:13:39;6.53;;;4.03;;
43710;SDS011;29309;42.682;23.372;2023-04-03T15:16:06;5.55;;;3.60;;
43710;SDS011;29309;42.682;23.372;2023-04-03T15:18:40;5.43;;;3.15;;
43710;SDS011;29309;42.682;23.372;2023-04-03T15:21:06;5.53;;;3.83;;
43710;SDS011;29309;42.682;23.372;2023-04-03T15:23:31;6.15;;;3.88;;
43710;SDS011;29309;42.682;23.372;2023-04-03T15:25:57;6.72;;;3.85;;
43710;SDS011;29309;42.682;23.372;2023-04-03T15:28:26;6.00;;;4.18;;
43710;SDS011;29309;42.682;23.372;2023-04-03T15:30:55;6.18;;;3.85;;
43710;SDS011;29309;42.682;23.372;2023-04-03T15:33:20;5.82;;;3.80;;
43710;SDS011;29309;42.682;23.372;2023-04-03T15:35:46;6.60;;;4.03;;
43710;SDS011;29309;42.682;23.372;2023-04-03T15:38:11;6.80;;;4.32;;
43710;SDS011;29309;42.682;23.372;2023-04-03T15:40:37;6.05;;;4.43;;
43710;SDS011;29309;42.682;23.372;2023-04-03T15:43:04;6.57;;;4.43;;
43710;SDS011;29309;42.682;23.372;2023-04-03T15:45:30;10.18;;;5.60;;
43710;SDS011;29309;42.682;23.372;2023-04-03T15:47:57;12.23;;;8.45;;
43710;SDS011;29309;42.682;23.372;2023-04-03T15:50:23;9.02;;;6.72;;
43710;SDS011;29309;42.682;23.372;2023-04-03T15:52:49;12.63;;;7.97;;
43710;SDS011;29309;42.682;23.372;2023-04-03T15:55:20;13.57;;;7.90;;
43710;SDS011;29309;42.682;23.372;2023-04-03T15:57:46;10.55;;;7.30;;
43710;SDS011;29309;42.682;23.372;2023-04-03T16:00:12;9.85;;;6.60;;
43710;SDS011;29309;42.682;23.372;2023-04-03T16:02:38;9.43;;;7.20;;
43710;SDS011;29309;42.682;23.372;2023-04-03T16:05:04;10.88;;;5.93;;
43710;SDS011;29309;42.682;23.372;2023-04-03T16:07:30;9.57;;;7.00;;
43710;SDS011;29309;42.682;23.372;2023-04-03T16:09:55;9.93;;;6.22;;
43710;SDS011;29309;42.682;23.372;2023-04-03T16:12:21;9.98;;;6.25;;
43710;SDS011;29309;42.682;23.372;2023-04-03T16:14:47;9.90;;;6.75;;